sensor_id;sensor_type;location;lat;lon;timestamp;pressure;altitude;pressure_sealevel;temperature;humidity
68329;BME280;55182;56.864;60.554;2023-09-19T00:02:01;74174.03;;;-143.60;100.00
68329;BME280;55182;56.864;60.554;2023-09-19T00:04:26;74176.03;;;-143.60;100.00
68329;BME280;55182;56.864;60.554;2023-09-19T00:06:52;74180.03;;;-143.60;100.00
68329;BME280;55182;56.864;60.554;2023-09-19T00:09:17;74182.06;;;-143.60;100.00
68329;BME280;55182;56.864;60.554;2023-09-19T00:11:43;74182.06;;;-143.60;100.00
68329;BME280;55182;56.864;60.554;2023-09-19T00:14:08;74192.09;;;-143.60;100.00
68329;BME280;55182;56.864;60.554;2023-09-19T00:16:34;74192.09;;;-143.60;100.00
68329;BME280;55182;56.864;60.554;2023-09-19T00:18:59;74198.13;;;-143.60;100.00
68329;BME280;55182;56.864;60.554;2023-09-19T00:21:25;74190.09;;;-143.60;100.00
68329;BME280;55182;56.864;60.554;2023-09-19T00:23:50;74198.13;;;-143.60;100.00
68329;BME280;55182;56.864;60.554;2023-09-19T00:26:15;74208.16;;;-143.60;100.00
68329;BME280;55182;56.864;60.554;2023-09-19T00:28:45;74208.16;;;-143.60;100.00
68329;BME280;55182;56.864;60.554;2023-09-19T00:31:10;74206.16;;;-143.60;100.00
68329;BME280;55182;56.864;60.554;2023-09-19T00:33:36;74210.19;;;-143.60;100.00
68329;BME280;55182;56.864;60.554;2023-09-19T00:36:01;74212.19;;;-143.60;100.00
68329;BME280;55182;56.864;60.554;2023-09-19T00:38:27;74218.22;;;-143.60;100.00
68329;BME280;55182;56.864;60.554;2023-09-19T00:40:53;74212.19;;;-143.60;100.00
68329;BME280;55182;56.864;60.554;2023-09-19T00:43:20;74218.22;;;-143.60;100.00
68329;BME280;55182;56.864;60.554;2023-09-19T00:45:47;74214.19;;;-143.60;100.00
68329;BME280;55182;56.864;60.554;2023-09-19T00:48:13;74214.19;;;-143.60;100.00
68329;BME280;55182;56.864;60.554;2023-09-19T00:50:43;74214.19;;;-143.60;100.00
68329;BME280;55182;56.864;60.554;2023-09-19T00:53:09;74210.19;;;-143.60;100.00
68329;BME280;55182;56.864;60.554;2023-09-19T00:55:38;74204.16;;;-143.60;100.00
68329;BME280;55182;56.864;60.554;2023-09-19T00:58:05;74198.13;;;-143.60;100.00
68329;BME280;55182;56.864;60.554;2023-09-19T01:00:30;74192.09;;;-143.60;100.00
68329;BME280;55182;56.864;60.554;2023-09-19T01:02:56;74190.09;;;-143.60;100.00
68329;BME280;55182;56.864;60.554;2023-09-19T01:05:21;74186.06;;;-143.60;100.00
68329;BME280;55182;56.864;60.554;2023-09-19T01:07:47;74186.06;;;-143.60;100.00
68329;BME280;55182;56.864;60.554;2023-09-19T01:10:14;74182.06;;;-143.60;100.00
68329;BME280;55182;56.864;60.554;2023-09-19T01:18:10;74172.00;;;-143.60;100.00
68329;BME280;55182;56.864;60.554;2023-09-19T01:20:49;74172.00;;;-143.60;100.00
68329;BME280;55182;56.864;60.554;2023-09-19T01:23:39;74168.00;;;-143.60;100.00
68329;BME280;55182;56.864;60.554;2023-09-19T01:31:10;74170.00;;;-143.60;100.00
68329;BME280;55182;56.864;60.554;2023-09-19T01:33:56;74166.00;;;-143.60;100.00
68329;BME280;55182;56.864;60.554;2023-09-19T01:36:21;74176.03;;;-143.60;100.00
68329;BME280;55182;56.864;60.554;2023-09-19T01:38:47;74178.03;;;-143.60;100.00
68329;BME280;55182;56.864;60.554;2023-09-19T01:41:12;74182.06;;;-143.60;100.00
68329;BME280;55182;56.864;60.554;2023-09-19T01:43:41;74192.09;;;-143.60;100.00
68329;BME280;55182;56.864;60.554;2023-09-19T01:46:17;74202.13;;;-143.60;100.00
68329;BME280;55182;56.864;60.554;2023-09-19T01:48:59;74196.13;;;-143.60;100.00
68329;BME280;55182;56.864;60.554;2023-09-19T01:51:34;74202.13;;;-143.60;100.00
68329;BME280;55182;56.864;60.554;2023-09-19T01:54:03;74200.13;;;-143.60;100.00
68329;BME280;55182;56.864;60.554;2023-09-19T01:57:09;74192.09;;;-143.60;100.00
68329;BME280;55182;56.864;60.554;2023-09-19T01:59:28;74178.03;;;-143.60;100.00
68329;BME280;55182;56.864;60.554;2023-09-19T02:01:57;74176.03;;;-143.60;100.00
68329;BME280;55182;56.864;60.554;2023-09-19T02:04:23;74172.00;;;-143.60;100.00
68329;BME280;55182;56.864;60.554;2023-09-19T02:06:48;74166.00;;;-143.60;100.00
68329;BME280;55182;56.864;60.554;2023-09-19T02:09:14;74163.97;;;-143.60;100.00
68329;BME280;55182;56.864;60.554;2023-09-19T02:11:39;74153.94;;;-143.60;100.00
68329;BME280;55182;56.864;60.554;2023-09-19T02:14:05;74149.91;;;-143.60;100.00
68329;BME280;55182;56.864;60.554;2023-09-19T02:16:31;74141.88;;;-143.60;100.00
68329;BME280;55182;56.864;60.554;2023-09-19T02:18:56;74139.88;;;-143.60;99.86
68329;BME280;55182;56.864;60.554;2023-09-19T02:21:22;74137.88;;;-143.60;99.86
68329;BME280;55182;56.864;60.554;2023-09-19T02:23:48;74145.91;;;-143.60;99.87
68329;BME280;55182;56.864;60.554;2023-09-19T02:26:13;74147.91;;;-143.60;100.00
68329;BME280;55182;56.864;60.554;2023-09-19T02:28:40;74155.94;;;-143.60;100.00
68329;BME280;55182;56.864;60.554;2023-09-19T02:31:08;74161.97;;;-143.60;100.00
68329;BME280;55182;56.864;60.554;2023-09-19T02:33:33;74163.97;;;-143.60;100.00
68329;BME280;55182;56.864;60.554;2023-09-19T02:35:59;74178.03;;;-143.60;100.00
68329;BME280;55182;56.864;60.554;2023-09-19T02:38:27;74180.03;;;-143.60;100.00
68329;BME280;55182;56.864;60.554;2023-09-19T02:40:53;74190.09;;;-143.60;100.00
68329;BME280;55182;56.864;60.554;2023-09-19T02:43:18;74200.13;;;-143.60;100.00
68329;BME280;55182;56.864;60.554;2023-09-19T02:45:44;74204.16;;;-143.60;100.00
68329;BME280;55182;56.864;60.554;2023-09-19T02:48:10;74208.16;;;-143.60;100.00
68329;BME280;55182;56.864;60.554;2023-09-19T02:50:35;74206.16;;;-143.60;100.00
68329;BME280;55182;56.864;60.554;2023-09-19T02:53:01;74200.13;;;-143.60;100.00
68329;BME280;55182;56.864;60.554;2023-09-19T02:55:26;74194.09;;;-143.60;100.00
68329;BME280;55182;56.864;60.554;2023-09-19T02:57:52;74190.09;;;-143.60;100.00
68329;BME280;55182;56.864;60.554;2023-09-19T03:00:19;74190.09;;;-143.60;100.00
68329;BME280;55182;56.864;60.554;2023-09-19T03:02:45;74192.09;;;-143.60;100.00
68329;BME280;55182;56.864;60.554;2023-09-19T03:05:11;74184.06;;;-143.60;100.00
68329;BME280;55182;56.864;60.554;2023-09-19T03:07:37;74186.06;;;-143.60;99.93
68329;BME280;55182;56.864;60.554;2023-09-19T03:10:02;74174.03;;;-143.60;99.86
68329;BME280;55182;56.864;60.554;2023-09-19T03:12:28;74178.03;;;-143.60;99.66
68329;BME280;55182;56.864;60.554;2023-09-19T03:14:53;74174.03;;;-143.60;99.34
68329;BME280;55182;56.864;60.554;2023-09-19T03:17:19;74155.94;;;-143.60;98.95
68329;BME280;55182;56.864;60.554;2023-09-19T03:19:44;74157.94;;;-143.60;98.61
68329;BME280;55182;56.864;60.554;2023-09-19T03:22:11;74157.94;;;-143.60;98.49
68329;BME280;55182;56.864;60.554;2023-09-19T03:24:37;74161.97;;;-143.60;98.68
68329;BME280;55182;56.864;60.554;2023-09-19T03:27:03;74166.00;;;-143.60;98.59
68329;BME280;55182;56.864;60.554;2023-09-19T03:29:29;74161.97;;;-143.60;98.13
68329;BME280;55182;56.864;60.554;2023-09-19T03:31:56;74153.94;;;-143.60;97.92
68329;BME280;55182;56.864;60.554;2023-09-19T03:34:21;74137.88;;;-143.60;97.72
68329;BME280;55182;56.864;60.554;2023-09-19T03:36:47;74137.88;;;-143.60;97.38
68329;BME280;55182;56.864;60.554;2023-09-19T03:39:12;74133.84;;;-143.60;97.07
68329;BME280;55182;56.864;60.554;2023-09-19T03:41:38;74133.84;;;-143.60;96.73
68329;BME280;55182;56.864;60.554;2023-09-19T03:44:04;74129.84;;;-143.60;96.71
68329;BME280;55182;56.864;60.554;2023-09-19T03:46:30;74129.84;;;-143.60;96.46
68329;BME280;55182;56.864;60.554;2023-09-19T03:48:56;74121.81;;;-143.60;96.37
68329;BME280;55182;56.864;60.554;2023-09-19T03:51:22;74113.75;;;-143.60;96.25
68329;BME280;55182;56.864;60.554;2023-09-19T03:53:47;74109.75;;;-143.60;96.00
68329;BME280;55182;56.864;60.554;2023-09-19T03:56:13;74109.75;;;-143.60;96.19
68329;BME280;55182;56.864;60.554;2023-09-19T03:58:38;74113.75;;;-143.60;95.50
68329;BME280;55182;56.864;60.554;2023-09-19T04:01:04;74101.72;;;-143.60;95.30
68329;BME280;55182;56.864;60.554;2023-09-19T04:03:29;74095.69;;;-143.60;95.31
68329;BME280;55182;56.864;60.554;2023-09-19T04:05:55;74089.66;;;-143.60;95.20
68329;BME280;55182;56.864;60.554;2023-09-19T04:08:21;74085.66;;;-143.60;95.13
68329;BME280;55182;56.864;60.554;2023-09-19T04:10:46;74077.63;;;-143.60;94.59
68329;BME280;55182;56.864;60.554;2023-09-19T04:13:12;74065.56;;;-143.60;94.14
68329;BME280;55182;56.864;60.554;2023-09-19T04:15:38;74057.53;;;-143.60;94.22
68329;BME280;55182;56.864;60.554;2023-09-19T04:18:03;74057.53;;;-143.60;93.98
68329;BME280;55182;56.864;60.554;2023-09-19T04:20:29;74045.47;;;-143.60;92.69
68329;BME280;55182;56.864;60.554;2023-09-19T04:22:54;74031.41;;;-143.60;91.48
68329;BME280;55182;56.864;60.554;2023-09-19T04:25:20;74023.38;;;-143.60;91.27
68329;BME280;55182;56.864;60.554;2023-09-19T04:27:45;74019.38;;;-143.60;90.78
68329;BME280;55182;56.864;60.554;2023-09-19T04:30:11;74013.34;;;-143.60;89.24
68329;BME280;55182;56.864;60.554;2023-09-19T04:32:36;73999.28;;;-143.60;88.44
68329;BME280;55182;56.864;60.554;2023-09-19T04:35:02;73999.28;;;-143.60;85.88
68329;BME280;55182;56.864;60.554;2023-09-19T04:37:30;73985.22;;;-143.60;85.60
68329;BME280;55182;56.864;60.554;2023-09-19T04:39:55;73973.19;;;-143.60;83.97
68329;BME280;55182;56.864;60.554;2023-09-19T04:42:21;73957.09;;;-143.60;83.96
68329;BME280;55182;56.864;60.554;2023-09-19T04:44:46;73941.03;;;-143.60;82.60
68329;BME280;55182;56.864;60.554;2023-09-19T04:47:11;73931.00;;;-143.60;81.83
68329;BME280;55182;56.864;60.554;2023-09-19T04:49:37;73916.94;;;-143.60;80.79
68329;BME280;55182;56.864;60.554;2023-09-19T04:52:03;73902.88;;;-143.60;81.19
68329;BME280;55182;56.864;60.554;2023-09-19T04:54:28;73890.84;;;-143.60;81.18
68329;BME280;55182;56.864;60.554;2023-09-19T04:56:54;73860.72;;;-143.60;81.30
68329;BME280;55182;56.864;60.554;2023-09-19T04:59:19;73836.59;;;-143.60;80.13
68329;BME280;55182;56.864;60.554;2023-09-19T05:01:44;73816.53;;;-143.60;79.77
68329;BME280;55182;56.864;60.554;2023-09-19T05:04:10;73794.44;;;-143.60;78.28
68329;BME280;55182;56.864;60.554;2023-09-19T05:06:35;73784.38;;;-143.60;77.88
68329;BME280;55182;56.864;60.554;2023-09-19T05:09:01;73762.31;;;-143.60;77.05
68329;BME280;55182;56.864;60.554;2023-09-19T05:11:26;73732.19;;;-143.60;75.26
68329;BME280;55182;56.864;60.554;2023-09-19T05:13:52;73710.09;;;-143.60;74.68
68329;BME280;55182;56.864;60.554;2023-09-19T05:16:17;73692.00;;;-143.60;74.13
68329;BME280;55182;56.864;60.554;2023-09-19T05:18:43;73679.97;;;-143.60;72.29
68329;BME280;55182;56.864;60.554;2023-09-19T05:21:08;73663.91;;;-143.60;72.37
68329;BME280;55182;56.864;60.554;2023-09-19T05:23:34;73663.91;;;-143.60;70.90
68329;BME280;55182;56.864;60.554;2023-09-19T05:25:59;73657.88;;;-143.60;70.93
68329;BME280;55182;56.864;60.554;2023-09-19T05:28:25;73651.84;;;-143.60;70.33
68329;BME280;55182;56.864;60.554;2023-09-19T05:30:51;73643.81;;;-143.60;69.69
68329;BME280;55182;56.864;60.554;2023-09-19T05:33:16;73639.78;;;-143.60;70.19
68329;BME280;55182;56.864;60.554;2023-09-19T05:35:41;73635.78;;;-143.60;67.94
68329;BME280;55182;56.864;60.554;2023-09-19T05:38:07;73631.75;;;-143.60;67.50
68329;BME280;55182;56.864;60.554;2023-09-19T05:40:33;73635.78;;;-143.60;67.88
68329;BME280;55182;56.864;60.554;2023-09-19T05:42:58;73635.78;;;-143.60;67.05
68329;BME280;55182;56.864;60.554;2023-09-19T05:45:24;73637.78;;;-143.60;66.88
68329;BME280;55182;56.864;60.554;2023-09-19T05:47:50;73627.75;;;-143.60;66.86
68329;BME280;55182;56.864;60.554;2023-09-19T05:50:15;73633.78;;;-143.60;67.01
68329;BME280;55182;56.864;60.554;2023-09-19T05:52:41;73623.72;;;-143.60;67.51
68329;BME280;55182;56.864;60.554;2023-09-19T05:55:07;73631.75;;;-143.60;67.99
68329;BME280;55182;56.864;60.554;2023-09-19T05:57:33;73627.75;;;-143.60;68.52
68329;BME280;55182;56.864;60.554;2023-09-19T05:59:58;73619.72;;;-143.60;68.80
68329;BME280;55182;56.864;60.554;2023-09-19T06:02:24;73623.72;;;-143.60;67.69
68329;BME280;55182;56.864;60.554;2023-09-19T06:04:49;73619.72;;;-143.60;67.48
68329;BME280;55182;56.864;60.554;2023-09-19T06:07:15;73619.72;;;-143.60;66.63
68329;BME280;55182;56.864;60.554;2023-09-19T06:09:40;73615.69;;;-143.60;67.05
68329;BME280;55182;56.864;60.554;2023-09-19T06:12:06;73617.72;;;-143.60;65.97
68329;BME280;55182;56.864;60.554;2023-09-19T06:14:31;73615.69;;;-143.60;65.36
68329;BME280;55182;56.864;60.554;2023-09-19T06:16:57;73619.72;;;-143.60;65.36
68329;BME280;55182;56.864;60.554;2023-09-19T06:19:23;73619.72;;;-143.60;65.73
68329;BME280;55182;56.864;60.554;2023-09-19T06:21:49;73617.72;;;-143.60;66.14
68329;BME280;55182;56.864;60.554;2023-09-19T06:24:14;73609.69;;;-143.60;66.42
68329;BME280;55182;56.864;60.554;2023-09-19T06:26:40;73617.72;;;-143.60;66.00
68329;BME280;55182;56.864;60.554;2023-09-19T06:29:05;73631.75;;;-143.60;66.44
68329;BME280;55182;56.864;60.554;2023-09-19T06:31:31;73643.81;;;-143.60;66.76
68329;BME280;55182;56.864;60.554;2023-09-19T06:33:56;73647.81;;;-143.60;67.68
68329;BME280;55182;56.864;60.554;2023-09-19T06:36:21;73647.81;;;-143.60;67.72
68329;BME280;55182;56.864;60.554;2023-09-19T06:38:47;73651.84;;;-143.60;68.38
68329;BME280;55182;56.864;60.554;2023-09-19T06:41:12;73659.88;;;-143.60;67.60
68329;BME280;55182;56.864;60.554;2023-09-19T06:43:38;73657.88;;;-143.60;67.98
68329;BME280;55182;56.864;60.554;2023-09-19T06:46:03;73669.91;;;-143.60;67.62
68329;BME280;55182;56.864;60.554;2023-09-19T06:48:28;73663.91;;;-143.60;67.92
68329;BME280;55182;56.864;60.554;2023-09-19T06:50:54;73667.91;;;-143.60;69.08
68329;BME280;55182;56.864;60.554;2023-09-19T06:53:19;73659.88;;;-143.60;69.13
68329;BME280;55182;56.864;60.554;2023-09-19T06:55:45;73649.84;;;-143.60;70.14
68329;BME280;55182;56.864;60.554;2023-09-19T06:58:10;73645.81;;;-143.60;68.94
68329;BME280;55182;56.864;60.554;2023-09-19T07:00:36;73655.88;;;-143.60;69.45
68329;BME280;55182;56.864;60.554;2023-09-19T07:03:02;73657.88;;;-143.60;69.08
68329;BME280;55182;56.864;60.554;2023-09-19T07:05:28;73645.81;;;-143.60;68.52
68329;BME280;55182;56.864;60.554;2023-09-19T07:07:53;73637.78;;;-143.60;68.81
68329;BME280;55182;56.864;60.554;2023-09-19T07:10:19;73635.78;;;-143.60;68.19
68329;BME280;55182;56.864;60.554;2023-09-19T07:12:44;73643.81;;;-143.60;68.49
68329;BME280;55182;56.864;60.554;2023-09-19T07:15:09;73639.78;;;-143.60;68.62
68329;BME280;55182;56.864;60.554;2023-09-19T07:17:35;73639.78;;;-143.60;68.53
68329;BME280;55182;56.864;60.554;2023-09-19T07:20:00;73643.81;;;-143.60;68.41
68329;BME280;55182;56.864;60.554;2023-09-19T07:22:26;73647.81;;;-143.60;68.88
68329;BME280;55182;56.864;60.554;2023-09-19T07:24:52;73627.75;;;-143.60;69.08
68329;BME280;55182;56.864;60.554;2023-09-19T07:27:17;73635.78;;;-143.60;68.57
68329;BME280;55182;56.864;60.554;2023-09-19T07:29:42;73637.78;;;-143.60;69.25
68329;BME280;55182;56.864;60.554;2023-09-19T07:32:08;73631.75;;;-143.60;68.25
68329;BME280;55182;56.864;60.554;2023-09-19T07:34:33;73631.75;;;-143.60;68.41
68329;BME280;55182;56.864;60.554;2023-09-19T07:36:59;73633.78;;;-143.60;68.63
68329;BME280;55182;56.864;60.554;2023-09-19T07:39:24;73639.78;;;-143.60;68.79
68329;BME280;55182;56.864;60.554;2023-09-19T07:41:50;73647.81;;;-143.60;69.61
68329;BME280;55182;56.864;60.554;2023-09-19T07:44:15;73659.88;;;-143.60;69.48
68329;BME280;55182;56.864;60.554;2023-09-19T07:46:41;73671.94;;;-143.60;70.01
68329;BME280;55182;56.864;60.554;2023-09-19T07:49:06;73671.94;;;-143.60;70.40
68329;BME280;55182;56.864;60.554;2023-09-19T07:51:32;73681.97;;;-143.60;70.69
68329;BME280;55182;56.864;60.554;2023-09-19T07:53:57;73698.03;;;-143.60;70.77
68329;BME280;55182;56.864;60.554;2023-09-19T07:56:23;73714.09;;;-143.60;71.76
68329;BME280;55182;56.864;60.554;2023-09-19T07:58:48;73730.16;;;-143.60;72.21
68329;BME280;55182;56.864;60.554;2023-09-19T08:01:14;73744.22;;;-143.60;73.25
68329;BME280;55182;56.864;60.554;2023-09-19T08:03:39;73760.28;;;-143.60;73.69
68329;BME280;55182;56.864;60.554;2023-09-19T08:06:05;73764.31;;;-143.60;73.64
68329;BME280;55182;56.864;60.554;2023-09-19T08:08:31;73776.34;;;-143.60;72.80
68329;BME280;55182;56.864;60.554;2023-09-19T08:10:56;73790.41;;;-143.60;72.50
68329;BME280;55182;56.864;60.554;2023-09-19T08:13:25;73808.50;;;-143.60;70.04
68329;BME280;55182;56.864;60.554;2023-09-19T08:15:51;73812.50;;;-143.60;69.30
68329;BME280;55182;56.864;60.554;2023-09-19T08:18:17;73824.56;;;-143.60;69.98
68329;BME280;55182;56.864;60.554;2023-09-19T08:20:42;73832.59;;;-143.60;69.34
68329;BME280;55182;56.864;60.554;2023-09-19T08:23:08;73828.56;;;-143.60;69.62
68329;BME280;55182;56.864;60.554;2023-09-19T08:25:34;73816.53;;;-143.60;69.12
68329;BME280;55182;56.864;60.554;2023-09-19T08:27:59;73808.50;;;-143.60;69.64
68329;BME280;55182;56.864;60.554;2023-09-19T08:30:25;73810.50;;;-143.60;69.61
68329;BME280;55182;56.864;60.554;2023-09-19T08:32:50;73808.50;;;-143.60;69.21
68329;BME280;55182;56.864;60.554;2023-09-19T08:35:16;73812.50;;;-143.60;69.19
68329;BME280;55182;56.864;60.554;2023-09-19T08:37:44;73824.56;;;-143.60;69.00
68329;BME280;55182;56.864;60.554;2023-09-19T08:40:10;73830.59;;;-143.60;68.86
68329;BME280;55182;56.864;60.554;2023-09-19T08:42:51;73832.59;;;-143.60;69.20
68329;BME280;55182;56.864;60.554;2023-09-19T08:45:17;73820.53;;;-143.60;69.35
68329;BME280;55182;56.864;60.554;2023-09-19T08:47:46;73806.47;;;-143.60;69.09
68329;BME280;55182;56.864;60.554;2023-09-19T08:50:19;73804.47;;;-143.60;69.16
68329;BME280;55182;56.864;60.554;2023-09-19T08:52:44;73794.44;;;-143.60;69.01
68329;BME280;55182;56.864;60.554;2023-09-19T08:55:12;73792.44;;;-143.60;69.14
68329;BME280;55182;56.864;60.554;2023-09-19T08:57:38;73780.38;;;-143.60;69.19
68329;BME280;55182;56.864;60.554;2023-09-19T09:00:04;73772.34;;;-143.60;69.41
68329;BME280;55182;56.864;60.554;2023-09-19T09:02:30;73778.38;;;-143.60;70.06
68329;BME280;55182;56.864;60.554;2023-09-19T09:04:56;73792.44;;;-143.60;70.32
68329;BME280;55182;56.864;60.554;2023-09-19T09:07:22;73796.44;;;-143.60;70.55
68329;BME280;55182;56.864;60.554;2023-09-19T09:09:48;73812.50;;;-143.60;70.76
68329;BME280;55182;56.864;60.554;2023-09-19T09:12:13;73824.56;;;-143.60;70.42
68329;BME280;55182;56.864;60.554;2023-09-19T09:14:39;73834.59;;;-143.60;70.12
68329;BME280;55182;56.864;60.554;2023-09-19T09:17:05;73848.66;;;-143.60;70.26
68329;BME280;55182;56.864;60.554;2023-09-19T09:19:30;73852.69;;;-143.60;70.01
68329;BME280;55182;56.864;60.554;2023-09-19T09:22:05;73860.72;;;-143.60;70.24
68329;BME280;55182;56.864;60.554;2023-09-19T09:24:31;73864.72;;;-143.60;69.83
68329;BME280;55182;56.864;60.554;2023-09-19T09:26:57;73866.72;;;-143.60;70.15
68329;BME280;55182;56.864;60.554;2023-09-19T09:29:41;73852.69;;;-143.60;69.22
68329;BME280;55182;56.864;60.554;2023-09-19T09:32:16;73842.63;;;-143.60;68.82
68329;BME280;55182;56.864;60.554;2023-09-19T09:34:42;73828.56;;;-143.60;68.58
68329;BME280;55182;56.864;60.554;2023-09-19T09:37:12;73826.56;;;-143.60;68.87
68329;BME280;55182;56.864;60.554;2023-09-19T09:39:38;73824.56;;;-143.60;68.94
68329;BME280;55182;56.864;60.554;2023-09-19T09:42:03;73790.41;;;-143.60;69.60
68329;BME280;55182;56.864;60.554;2023-09-19T09:44:29;73756.28;;;-143.60;68.12
68329;BME280;55182;56.864;60.554;2023-09-19T09:46:54;73734.19;;;-143.60;66.72
68329;BME280;55182;56.864;60.554;2023-09-19T09:49:23;73720.13;;;-143.60;66.69
68329;BME280;55182;56.864;60.554;2023-09-19T09:51:50;73718.13;;;-143.60;66.09
68329;BME280;55182;56.864;60.554;2023-09-19T09:54:16;73716.09;;;-143.60;64.90
68329;BME280;55182;56.864;60.554;2023-09-19T09:59:20;73722.13;;;-143.60;64.80
68329;BME280;55182;56.864;60.554;2023-09-19T10:01:47;73750.25;;;-143.60;62.91
68329;BME280;55182;56.864;60.554;2023-09-19T10:04:12;73764.31;;;-143.60;62.04
68329;BME280;55182;56.864;60.554;2023-09-19T10:06:52;73764.31;;;-143.60;60.71
68329;BME280;55182;56.864;60.554;2023-09-19T10:09:17;73780.38;;;-143.60;61.02
68329;BME280;55182;56.864;60.554;2023-09-19T10:11:43;73790.41;;;-143.60;61.48
68329;BME280;55182;56.864;60.554;2023-09-19T10:14:10;73804.47;;;-143.60;61.63
68329;BME280;55182;56.864;60.554;2023-09-19T10:16:36;73818.53;;;-143.60;60.34
68329;BME280;55182;56.864;60.554;2023-09-19T10:19:05;73828.56;;;-143.60;60.40
68329;BME280;55182;56.864;60.554;2023-09-19T10:21:32;73848.66;;;-143.60;60.04
68329;BME280;55182;56.864;60.554;2023-09-19T10:23:58;73850.66;;;-143.60;60.43
68329;BME280;55182;56.864;60.554;2023-09-19T10:26:24;73852.69;;;-143.60;61.25
68329;BME280;55182;56.864;60.554;2023-09-19T10:28:49;73844.66;;;-143.60;61.33
68329;BME280;55182;56.864;60.554;2023-09-19T10:31:18;73846.66;;;-143.60;61.47
68329;BME280;55182;56.864;60.554;2023-09-19T10:33:44;73848.66;;;-143.60;61.22
68329;BME280;55182;56.864;60.554;2023-09-19T10:36:09;73852.69;;;-143.60;61.58
68329;BME280;55182;56.864;60.554;2023-09-19T10:38:35;73840.63;;;-143.60;61.43
68329;BME280;55182;56.864;60.554;2023-09-19T10:41:02;73832.59;;;-143.60;61.77
68329;BME280;55182;56.864;60.554;2023-09-19T10:43:32;73824.56;;;-143.60;61.59
68329;BME280;55182;56.864;60.554;2023-09-19T10:46:00;73802.47;;;-143.60;61.91
68329;BME280;55182;56.864;60.554;2023-09-19T10:48:26;73784.38;;;-143.60;61.03
68329;BME280;55182;56.864;60.554;2023-09-19T10:53:17;73784.38;;;-143.60;61.93
68329;BME280;55182;56.864;60.554;2023-09-19T10:55:52;73782.38;;;-143.60;62.34
68329;BME280;55182;56.864;60.554;2023-09-19T10:58:25;73792.44;;;-143.60;61.90
68329;BME280;55182;56.864;60.554;2023-09-19T11:00:52;73792.44;;;-143.60;60.82
68329;BME280;55182;56.864;60.554;2023-09-19T11:03:18;73794.44;;;-143.60;61.02
68329;BME280;55182;56.864;60.554;2023-09-19T11:05:59;73800.47;;;-143.60;61.50
68329;BME280;55182;56.864;60.554;2023-09-19T11:08:26;73808.50;;;-143.60;62.09
68329;BME280;55182;56.864;60.554;2023-09-19T11:10:52;73830.59;;;-143.60;62.23
68329;BME280;55182;56.864;60.554;2023-09-19T11:13:24;73834.59;;;-143.60;62.31
68329;BME280;55182;56.864;60.554;2023-09-19T11:21:39;73848.66;;;-143.60;62.19
68329;BME280;55182;56.864;60.554;2023-09-19T11:26:42;73858.69;;;-143.60;62.09
68329;BME280;55182;56.864;60.554;2023-09-19T11:29:24;73856.69;;;-143.60;62.28
68329;BME280;55182;56.864;60.554;2023-09-19T11:31:49;73854.69;;;-143.60;62.27
68329;BME280;55182;56.864;60.554;2023-09-19T11:36:59;73828.56;;;-143.60;61.51
68329;BME280;55182;56.864;60.554;2023-09-19T11:39:25;73814.50;;;-143.60;61.93
68329;BME280;55182;56.864;60.554;2023-09-19T11:41:50;73826.56;;;-143.60;63.10
68329;BME280;55182;56.864;60.554;2023-09-19T11:49:16;73848.66;;;-143.60;60.83
68329;BME280;55182;56.864;60.554;2023-09-19T11:51:42;73854.69;;;-143.60;60.96
68329;BME280;55182;56.864;60.554;2023-09-19T11:54:10;73868.75;;;-143.60;61.27
68329;BME280;55182;56.864;60.554;2023-09-19T11:56:38;73876.78;;;-143.60;62.33
68329;BME280;55182;56.864;60.554;2023-09-19T11:59:04;73890.84;;;-143.60;62.49
68329;BME280;55182;56.864;60.554;2023-09-19T12:01:30;73896.84;;;-143.60;63.07
68329;BME280;55182;56.864;60.554;2023-09-19T12:03:56;73896.84;;;-143.60;63.00
68329;BME280;55182;56.864;60.554;2023-09-19T12:06:23;73896.84;;;-143.60;63.30
68329;BME280;55182;56.864;60.554;2023-09-19T12:08:48;73888.81;;;-143.60;64.42
68329;BME280;55182;56.864;60.554;2023-09-19T12:11:14;73892.84;;;-143.60;63.30
68329;BME280;55182;56.864;60.554;2023-09-19T12:13:43;73904.88;;;-143.60;62.76
68329;BME280;55182;56.864;60.554;2023-09-19T12:16:15;73908.91;;;-143.60;62.53
68329;BME280;55182;56.864;60.554;2023-09-19T12:18:41;73912.94;;;-143.60;63.05
68329;BME280;55182;56.864;60.554;2023-09-19T12:21:07;73906.91;;;-143.60;61.91
68329;BME280;55182;56.864;60.554;2023-09-19T12:23:32;73900.88;;;-143.60;59.62
68329;BME280;55182;56.864;60.554;2023-09-19T12:25:57;73904.88;;;-143.60;58.89
68329;BME280;55182;56.864;60.554;2023-09-19T12:28:27;73898.88;;;-143.60;58.53
68329;BME280;55182;56.864;60.554;2023-09-19T12:30:52;73896.84;;;-143.60;57.75
68329;BME280;55182;56.864;60.554;2023-09-19T12:33:19;73880.78;;;-143.60;57.50
68329;BME280;55182;56.864;60.554;2023-09-19T12:35:45;73876.78;;;-143.60;57.51
68329;BME280;55182;56.864;60.554;2023-09-19T12:38:11;73874.75;;;-143.60;57.75
68329;BME280;55182;56.864;60.554;2023-09-19T12:40:36;73856.69;;;-143.60;57.23
68329;BME280;55182;56.864;60.554;2023-09-19T12:43:02;73828.56;;;-143.60;56.80
68329;BME280;55182;56.864;60.554;2023-09-19T12:45:29;73812.50;;;-143.60;56.60
68329;BME280;55182;56.864;60.554;2023-09-19T12:50:58;73796.44;;;-143.60;56.44
68329;BME280;55182;56.864;60.554;2023-09-19T12:53:25;73816.53;;;-143.60;57.31
68329;BME280;55182;56.864;60.554;2023-09-19T12:55:57;73836.59;;;-143.60;58.18
68329;BME280;55182;56.864;60.554;2023-09-19T12:58:23;73858.69;;;-143.60;57.96
68329;BME280;55182;56.864;60.554;2023-09-19T13:00:49;73872.75;;;-143.60;58.64